Chestnut Mound, Tennessee
Current Conditions -  °F | °C
As of 10:15 AM on Monday 22 Dec 2014 (Local Time) from KSRB Reporting Station
Scattered Clouds Scattered Clouds  
Wind Chill: 52°   Ceiling: Unl
Heat Index: 52°   Visibility: 10mi
Dew Point: 45°   Wind: 8mph
Humidity: 76%   Direction: 170°S
Pressure: 29.91"   Gusts: NA
Location:  36.2°N, 85.83°W
Report Text: KSRB 221615Z AUTO 17007KT 10SM SCT095 11/07 A2991 RMK
Loading
Personal Weather Stations






























Interactive Weather Map New forecast layout! Learn more

10-Day Weather Forecast

Advertisements
Track Severe Weather on mobile